createdAt,value
2018-08-17T00:01:44.450Z,14.60
2018-08-17T00:04:13.417Z,15.30
2018-08-17T00:06:42.351Z,16.63
2018-08-17T00:09:12.562Z,16.07
2018-08-17T00:11:41.506Z,15.03
2018-08-17T00:14:10.420Z,15.97
2018-08-17T00:16:39.594Z,15.00
2018-08-17T00:19:08.504Z,15.33
2018-08-17T00:21:37.525Z,15.20
2018-08-17T00:24:06.447Z,14.30
2018-08-17T00:26:35.310Z,15.63
2018-08-17T00:29:04.170Z,15.57
2018-08-17T00:31:33.101Z,15.40
2018-08-17T00:34:03.088Z,14.70
2018-08-17T00:36:32.000Z,15.37
2018-08-17T00:39:00.949Z,15.23
2018-08-17T00:41:29.865Z,15.10
2018-08-17T00:43:58.790Z,13.90
2018-08-17T00:46:27.721Z,16.70
2018-08-17T00:48:56.596Z,14.50
2018-08-17T00:51:26.352Z,14.20
2018-08-17T00:53:55.219Z,15.37
2018-08-17T00:56:24.115Z,15.47
2018-08-17T00:58:53.149Z,16.00
2018-08-17T01:01:22.054Z,14.83
2018-08-17T01:03:50.963Z,17.13
2018-08-17T01:06:19.869Z,17.17
2018-08-17T01:08:48.754Z,16.97
2018-08-17T01:11:17.663Z,17.03
2018-08-17T01:13:46.572Z,17.80
2018-08-17T01:16:15.441Z,16.77
2018-08-17T01:18:44.329Z,17.40
2018-08-17T01:21:14.283Z,16.67
2018-08-17T01:23:43.173Z,18.13
2018-08-17T01:26:12.072Z,17.47
2018-08-17T01:28:40.964Z,16.80
2018-08-17T01:31:09.910Z,16.50
2018-08-17T01:33:38.788Z,19.93
2018-08-17T01:36:07.712Z,21.83
2018-08-17T01:38:36.599Z,20.93
2018-08-17T01:41:05.630Z,19.80
2018-08-17T01:43:34.506Z,19.10
2018-08-17T01:46:03.394Z,17.33
2018-08-17T01:48:32.554Z,17.43
2018-08-17T01:51:01.436Z,17.57
2018-08-17T01:53:30.375Z,17.27
2018-08-17T01:55:59.872Z,20.00
2018-08-17T01:58:28.790Z,20.63
2018-08-17T02:00:57.638Z,20.13
2018-08-17T02:03:26.585Z,20.23
2018-08-17T02:05:55.548Z,17.47
2018-08-17T02:08:24.470Z,16.80
2018-08-17T02:10:53.363Z,16.00
2018-08-17T02:13:22.376Z,15.43
2018-08-17T02:15:51.300Z,14.87
2018-08-17T02:18:20.190Z,13.90
2018-08-17T02:20:49.128Z,13.00
2018-08-17T02:23:18.081Z,12.03
2018-08-17T02:25:47.053Z,11.43
2018-08-17T02:28:15.938Z,10.47
2018-08-17T02:30:44.887Z,9.17
2018-08-17T02:33:13.802Z,9.00
2018-08-17T02:35:42.730Z,8.93
2018-08-17T02:38:11.607Z,8.23
2018-08-17T02:40:40.497Z,8.33
2018-08-17T02:43:09.488Z,8.43
2018-08-17T02:45:38.372Z,7.77
2018-08-17T02:48:07.258Z,8.37
2018-08-17T02:50:36.209Z,7.83
2018-08-17T02:53:05.674Z,7.43
2018-08-17T02:55:36.068Z,8.60
2018-08-17T02:58:04.989Z,8.03
2018-08-17T03:00:33.847Z,7.27
2018-08-17T03:03:02.741Z,6.90
2018-08-17T03:05:31.638Z,6.73
2018-08-17T03:08:00.563Z,7.27
2018-08-17T03:10:29.442Z,6.90
2018-08-17T03:12:58.321Z,6.77
2018-08-17T03:15:27.233Z,6.40
2018-08-17T03:17:56.169Z,6.70
2018-08-17T03:20:25.080Z,6.73
2018-08-17T03:22:53.980Z,6.83
2018-08-17T03:25:22.891Z,7.00
2018-08-17T03:27:51.773Z,7.30
2018-08-17T03:30:21.682Z,6.57
2018-08-17T03:32:50.550Z,6.67
2018-08-17T03:35:19.445Z,6.67
2018-08-17T03:37:48.339Z,6.87
2018-08-17T03:40:17.302Z,6.50
2018-08-17T03:42:46.190Z,6.53
2018-08-17T03:45:15.074Z,6.90
2018-08-17T03:47:43.999Z,7.27
2018-08-17T03:50:12.920Z,6.63
2018-08-17T03:52:41.807Z,7.37
2018-08-17T03:55:10.685Z,6.07
2018-08-17T03:57:39.566Z,6.43
2018-08-17T04:00:08.503Z,6.60
2018-08-17T04:02:37.508Z,7.00
2018-08-17T04:05:06.413Z,6.13
2018-08-17T04:07:35.361Z,6.47
2018-08-17T04:10:04.609Z,6.03
2018-08-17T04:12:33.474Z,6.63
2018-08-17T04:15:02.385Z,6.80
2018-08-17T04:17:31.272Z,6.90
2018-08-17T04:20:00.195Z,6.73
2018-08-17T04:22:29.063Z,6.20
2018-08-17T04:24:57.950Z,6.73
2018-08-17T04:27:26.857Z,6.43
2018-08-17T04:29:55.744Z,6.40
2018-08-17T04:32:24.668Z,6.50
2018-08-17T04:34:53.670Z,6.50
2018-08-17T04:37:22.676Z,6.50
2018-08-17T04:39:51.550Z,6.77
2018-08-17T04:42:20.433Z,6.37
2018-08-17T04:44:49.352Z,6.00
2018-08-17T04:47:18.237Z,5.83
2018-08-17T04:49:47.267Z,5.60
2018-08-17T04:52:16.195Z,5.70
2018-08-17T04:54:45.188Z,6.30
2018-08-17T04:57:14.164Z,5.87
2018-08-17T04:59:43.057Z,5.97
2018-08-17T05:02:13.010Z,5.37
2018-08-17T05:04:41.893Z,4.70
2018-08-17T05:07:11.455Z,4.87
2018-08-17T05:09:40.429Z,5.67
2018-08-17T05:12:10.533Z,5.90
2018-08-17T05:14:39.548Z,6.67
2018-08-17T05:17:08.442Z,8.53
2018-08-17T05:19:37.377Z,8.07
2018-08-17T05:22:06.273Z,7.37
2018-08-17T05:24:35.278Z,7.40
2018-08-17T05:27:04.218Z,6.70
2018-08-17T05:29:33.185Z,7.40
2018-08-17T05:32:02.129Z,7.37
2018-08-17T05:34:31.049Z,6.97
2018-08-17T05:37:00.053Z,7.40
2018-08-17T05:39:28.951Z,8.13
2018-08-17T05:41:57.833Z,7.27
2018-08-17T05:44:27.734Z,7.80
2018-08-17T05:46:56.634Z,7.20
2018-08-17T05:49:25.621Z,8.37
2018-08-17T05:51:54.583Z,7.80
2018-08-17T05:54:23.462Z,7.70
2018-08-17T05:56:52.407Z,7.20
2018-08-17T05:59:21.293Z,6.90
2018-08-17T06:01:50.197Z,7.00
2018-08-17T06:04:19.103Z,6.37
2018-08-17T06:06:48.011Z,6.47
2018-08-17T06:09:16.973Z,6.97
2018-08-17T06:11:45.882Z,7.37
2018-08-17T06:14:14.743Z,8.40
2018-08-17T06:16:43.643Z,7.83
2018-08-17T06:19:12.658Z,8.00
2018-08-17T06:21:41.613Z,7.67
2018-08-17T06:24:11.351Z,8.37
2018-08-17T06:26:40.254Z,8.47
2018-08-17T06:29:09.123Z,8.67
2018-08-17T06:31:38.135Z,8.57
2018-08-17T06:34:06.982Z,8.37
2018-08-17T06:36:35.898Z,9.30
2018-08-17T06:39:07.299Z,9.10
2018-08-17T06:41:36.218Z,8.87
2018-08-17T06:44:05.144Z,8.57
2018-08-17T06:46:34.164Z,7.90
2018-08-17T06:49:03.053Z,8.17
2018-08-17T06:51:32.006Z,8.57
2018-08-17T06:54:00.939Z,7.77
2018-08-17T06:56:29.853Z,7.80
2018-08-17T06:58:58.724Z,6.93
2018-08-17T07:01:27.635Z,7.10
2018-08-17T07:03:56.572Z,7.20
2018-08-17T07:06:25.493Z,7.10
2018-08-17T07:08:54.859Z,6.27
2018-08-17T07:11:24.770Z,6.27
2018-08-17T07:13:54.279Z,6.97
2018-08-17T07:16:23.325Z,6.33
2018-08-17T07:18:52.209Z,7.13
2018-08-17T07:21:21.099Z,6.50
2018-08-17T07:23:49.974Z,7.00
2018-08-17T07:26:18.878Z,7.27
2018-08-17T07:28:47.790Z,6.87
2018-08-17T07:31:16.674Z,6.80
2018-08-17T07:33:45.561Z,6.63
2018-08-17T07:36:14.498Z,7.27
2018-08-17T07:38:43.428Z,7.07
2018-08-17T07:41:12.330Z,7.17
2018-08-17T07:43:41.248Z,7.17
2018-08-17T07:46:10.811Z,8.17
2018-08-17T07:48:39.884Z,7.20
2018-08-17T07:51:08.981Z,7.03
2018-08-17T07:53:37.919Z,6.67
2018-08-17T07:56:06.903Z,6.40
2018-08-17T07:58:35.831Z,5.90
2018-08-17T08:01:04.744Z,6.23
2018-08-17T08:03:33.752Z,6.90
2018-08-17T08:06:02.683Z,7.80
2018-08-17T08:08:31.604Z,7.93
2018-08-17T08:11:00.603Z,8.10
2018-08-17T08:13:29.613Z,8.10
2018-08-17T08:15:58.490Z,8.30
2018-08-17T08:18:27.345Z,8.20
2018-08-17T08:20:56.260Z,8.80
2018-08-17T08:23:27.063Z,8.77
2018-08-17T08:25:56.408Z,9.47
2018-08-17T08:28:25.304Z,9.67
2018-08-17T08:30:54.217Z,10.13
2018-08-17T08:33:23.287Z,10.53
2018-08-17T08:35:52.189Z,10.63
2018-08-17T08:38:21.109Z,11.80
2018-08-17T08:40:50.031Z,10.40
2018-08-17T08:43:18.943Z,10.27
2018-08-17T08:45:47.903Z,11.17
2018-08-17T08:48:16.739Z,9.73
2018-08-17T08:50:45.658Z,9.63
2018-08-17T08:53:14.526Z,9.90
2018-08-17T08:55:43.420Z,9.93
2018-08-17T08:58:12.353Z,10.07
2018-08-17T09:00:41.226Z,9.77
2018-08-17T09:03:10.256Z,10.57
2018-08-17T09:05:39.172Z,10.67
2018-08-17T09:08:08.122Z,11.17
2018-08-17T09:10:36.962Z,12.17
2018-08-17T09:13:06.092Z,11.77
2018-08-17T09:15:34.983Z,11.40
2018-08-17T09:18:03.865Z,10.60
2018-08-17T09:20:32.850Z,11.33
2018-08-17T09:23:02.732Z,10.93
2018-08-17T09:25:31.668Z,10.40
2018-08-17T09:28:00.575Z,10.67
2018-08-17T09:30:29.473Z,11.13
2018-08-17T09:32:58.382Z,10.73
2018-08-17T09:35:27.249Z,11.03
2018-08-17T09:37:56.199Z,15.80
2018-08-17T09:40:25.137Z,15.80
2018-08-17T09:42:54.093Z,15.00
2018-08-17T09:45:22.974Z,15.40
2018-08-17T09:47:52.925Z,14.23
2018-08-17T09:50:21.810Z,14.87
2018-08-17T09:52:50.736Z,14.70
2018-08-17T09:55:19.611Z,15.70
2018-08-17T09:57:48.526Z,16.33
2018-08-17T10:00:17.439Z,16.87
2018-08-17T10:02:51.543Z,16.03
2018-08-17T10:05:25.678Z,16.70
2018-08-17T10:07:59.820Z,18.40
2018-08-17T10:10:28.716Z,19.20
2018-08-17T10:12:57.681Z,18.87
2018-08-17T10:15:26.648Z,18.53
2018-08-17T10:17:55.584Z,19.73
2018-08-17T10:20:24.811Z,17.93
2018-08-17T10:22:53.676Z,19.07
2018-08-17T10:25:24.834Z,18.63
2018-08-17T10:27:57.071Z,18.57
2018-08-17T10:30:26.121Z,19.20
2018-08-17T10:32:57.312Z,19.83
2018-08-17T10:35:32.549Z,16.20
2018-08-17T10:38:05.644Z,14.73
2018-08-17T10:40:34.633Z,12.10
2018-08-17T10:43:04.782Z,10.77
2018-08-17T10:45:33.989Z,8.50
2018-08-17T10:48:02.946Z,7.77
2018-08-17T10:50:32.957Z,6.37
2018-08-17T10:53:02.990Z,6.30
2018-08-17T10:55:41.072Z,5.80
2018-08-17T10:58:11.802Z,5.27
2018-08-17T11:00:40.706Z,5.90
2018-08-17T11:03:09.685Z,5.40
2018-08-17T11:05:38.591Z,5.00
2018-08-17T11:08:07.580Z,5.07
2018-08-17T11:10:36.553Z,5.00
2018-08-17T11:13:05.519Z,5.60
2018-08-17T11:15:34.393Z,4.90
2018-08-17T11:18:03.273Z,4.73
2018-08-17T11:20:32.237Z,4.93
2018-08-17T11:23:02.170Z,5.50
2018-08-17T11:25:31.093Z,5.90
2018-08-17T11:27:59.941Z,6.70
2018-08-17T11:30:28.849Z,7.63
2018-08-17T11:32:57.767Z,8.33
2018-08-17T11:35:26.630Z,7.83
2018-08-17T11:37:55.527Z,8.97
2018-08-17T11:40:24.469Z,8.03
2018-08-17T11:42:53.357Z,7.97
2018-08-17T11:45:25.322Z,7.67
2018-08-17T11:47:54.870Z,6.97
2018-08-17T11:50:24.829Z,7.60
2018-08-17T11:52:54.823Z,7.40
2018-08-17T11:55:24.595Z,7.50
2018-08-17T11:57:53.694Z,7.13
2018-08-17T12:00:22.592Z,7.63
2018-08-17T12:02:51.486Z,7.23
2018-08-17T12:05:20.364Z,6.60
2018-08-17T12:07:49.561Z,6.73
2018-08-17T12:10:18.491Z,6.50
2018-08-17T12:12:47.487Z,6.17
2018-08-17T12:15:16.740Z,7.40
2018-08-17T12:17:45.652Z,7.50
2018-08-17T12:20:14.563Z,6.67
2018-08-17T12:22:43.527Z,7.40
2018-08-17T12:25:12.540Z,7.53
2018-08-17T12:27:46.497Z,7.73
2018-08-17T12:30:15.393Z,7.33
2018-08-17T12:32:44.331Z,9.30
2018-08-17T12:35:13.219Z,8.20
2018-08-17T12:37:42.154Z,8.80
2018-08-17T12:40:11.108Z,7.30
2018-08-17T12:42:39.981Z,8.00
2018-08-17T12:45:14.083Z,7.80
2018-08-17T12:47:42.973Z,8.00
2018-08-17T12:50:11.975Z,7.93
2018-08-17T12:52:40.842Z,7.57
2018-08-17T12:55:09.723Z,8.03
2018-08-17T12:57:42.173Z,7.10
2018-08-17T13:00:12.059Z,6.27
2018-08-17T13:02:41.094Z,9.67
2018-08-17T13:05:09.984Z,9.90
2018-08-17T13:07:38.944Z,10.60
2018-08-17T13:10:07.799Z,8.33
2018-08-17T13:12:36.690Z,8.97
2018-08-17T13:15:05.670Z,8.30
2018-08-17T13:17:39.698Z,8.30
2018-08-17T13:20:08.620Z,8.37
2018-08-17T13:22:37.507Z,7.03
2018-08-17T13:25:06.479Z,7.10
2018-08-17T13:27:35.435Z,7.30
2018-08-17T13:30:05.273Z,9.10
2018-08-17T13:32:34.241Z,9.43
2018-08-17T13:35:03.208Z,7.70
2018-08-17T13:37:32.171Z,5.83
2018-08-17T13:40:01.326Z,5.93
2018-08-17T13:42:30.104Z,5.53
2018-08-17T13:44:59.028Z,6.00
2018-08-17T13:47:27.939Z,6.13
2018-08-17T13:49:56.860Z,7.27
2018-08-17T13:52:25.805Z,6.83
2018-08-17T13:54:54.685Z,5.53
2018-08-17T13:57:23.617Z,4.17
2018-08-17T13:59:52.520Z,4.03
2018-08-17T14:02:21.413Z,3.60
2018-08-17T14:04:50.382Z,3.90
2018-08-17T14:07:19.293Z,3.47
2018-08-17T14:09:48.225Z,4.50
2018-08-17T14:12:17.193Z,4.63
2018-08-17T14:14:46.106Z,4.47
2018-08-17T14:17:15.000Z,4.30
2018-08-17T14:19:43.897Z,5.50
2018-08-17T14:22:12.803Z,4.70
2018-08-17T14:24:41.726Z,5.37
2018-08-17T14:27:10.583Z,4.30
2018-08-17T14:29:39.608Z,3.77
2018-08-17T14:32:08.507Z,4.80
2018-08-17T14:34:37.441Z,5.07
2018-08-17T14:37:06.339Z,4.13
2018-08-17T14:39:35.359Z,4.20
2018-08-17T14:42:04.286Z,4.57
2018-08-17T14:44:33.208Z,3.73
2018-08-17T14:47:02.146Z,2.57
2018-08-17T14:49:31.013Z,3.30
2018-08-17T14:51:59.970Z,3.03
2018-08-17T14:54:28.879Z,3.53
2018-08-17T14:56:57.766Z,4.10
2018-08-17T14:59:26.707Z,2.90
2018-08-17T15:01:55.724Z,3.40
2018-08-17T15:04:24.619Z,2.80
2018-08-17T15:06:53.547Z,3.07
2018-08-17T15:09:22.409Z,3.17
2018-08-17T15:11:51.304Z,3.50
2018-08-17T15:14:20.205Z,3.50
2018-08-17T15:16:49.071Z,2.90
2018-08-17T15:19:17.971Z,2.90
2018-08-17T15:21:46.966Z,2.70
2018-08-17T15:24:15.857Z,2.23
2018-08-17T15:26:44.782Z,2.63
2018-08-17T15:29:13.709Z,2.40
2018-08-17T15:31:42.604Z,2.40
2018-08-17T15:34:11.492Z,2.50
2018-08-17T15:36:40.369Z,2.30
2018-08-17T15:39:09.337Z,2.70
2018-08-17T15:41:41.942Z,2.37
2018-08-17T15:44:29.302Z,2.60
2018-08-17T15:46:58.756Z,2.73
2018-08-17T15:49:35.428Z,2.97
2018-08-17T15:52:05.527Z,3.10
2018-08-17T15:54:34.531Z,2.67
2018-08-17T15:57:03.537Z,2.90
2018-08-17T15:59:32.526Z,3.00
2018-08-17T16:02:01.521Z,2.70
2018-08-17T16:04:30.600Z,2.60
2018-08-17T16:06:59.615Z,3.37
2018-08-17T16:09:28.608Z,3.10
2018-08-17T16:11:57.561Z,3.10
2018-08-17T16:14:26.551Z,2.23
2018-08-17T16:16:55.457Z,1.90
2018-08-17T16:19:24.445Z,2.23
2018-08-17T16:21:53.351Z,2.03
2018-08-17T16:24:22.304Z,2.30
2018-08-17T16:26:51.229Z,2.20
2018-08-17T16:29:20.220Z,2.17
2018-08-17T16:31:49.144Z,1.80
2018-08-17T16:34:18.046Z,2.10
2018-08-17T16:36:46.923Z,1.83
2018-08-17T16:39:16.985Z,2.03
2018-08-17T16:41:45.962Z,2.17
2018-08-17T16:44:15.203Z,1.60
2018-08-17T16:46:44.397Z,1.90
2018-08-17T16:49:13.294Z,1.90
2018-08-17T16:51:41.272Z,1.77
2018-08-17T16:54:10.019Z,1.70
2018-08-17T16:56:38.922Z,2.00
2018-08-17T16:59:07.809Z,2.00
2018-08-17T17:01:36.677Z,2.10
2018-08-17T17:04:05.599Z,1.90
2018-08-17T17:06:34.554Z,2.20
2018-08-17T17:09:06.383Z,1.90
2018-08-17T17:11:35.381Z,2.00
2018-08-17T17:14:04.401Z,2.17
2018-08-17T17:16:38.769Z,1.90
2018-08-17T17:19:13.733Z,2.07
2018-08-17T17:21:44.019Z,2.13
2018-08-17T17:24:12.939Z,2.20
2018-08-17T17:26:42.032Z,1.90
2018-08-17T17:29:11.027Z,2.60
2018-08-17T17:31:40.199Z,2.63
2018-08-17T17:34:09.501Z,2.50
2018-08-17T17:36:38.800Z,2.40
2018-08-17T17:39:09.890Z,2.60
2018-08-17T17:41:38.791Z,2.13
2018-08-17T17:44:08.025Z,1.63
2018-08-17T17:46:37.085Z,1.80
2018-08-17T17:49:06.005Z,1.87
2018-08-17T17:51:34.915Z,2.30
2018-08-17T17:54:03.855Z,2.00
2018-08-17T17:56:32.792Z,5.83
2018-08-17T17:59:05.841Z,4.73
2018-08-17T18:01:34.749Z,2.70
2018-08-17T18:04:03.701Z,2.50
2018-08-17T18:06:32.665Z,2.27
2018-08-17T18:09:02.193Z,2.47
2018-08-17T18:11:31.062Z,2.00
2018-08-17T18:13:59.984Z,2.07
2018-08-17T18:16:28.949Z,2.20
2018-08-17T18:18:57.853Z,2.10
2018-08-17T18:21:31.124Z,2.30
2018-08-17T18:24:05.319Z,2.53
2018-08-17T18:26:34.332Z,2.20
2018-08-17T18:29:03.256Z,2.77
2018-08-17T18:31:32.188Z,2.57
2018-08-17T18:34:01.122Z,2.40
2018-08-17T18:36:30.011Z,2.57
2018-08-17T18:38:58.921Z,2.23
2018-08-17T18:41:27.848Z,2.50
2018-08-17T18:43:56.917Z,2.67
2018-08-17T18:46:25.936Z,2.37
2018-08-17T18:48:54.852Z,2.60
2018-08-17T18:51:23.713Z,2.67
2018-08-17T18:53:52.781Z,2.30
2018-08-17T18:56:21.677Z,2.40
2018-08-17T18:58:50.667Z,2.50
2018-08-17T19:01:19.704Z,2.43
2018-08-17T19:03:48.585Z,2.50
2018-08-17T19:06:17.486Z,2.80
2018-08-17T19:08:47.021Z,3.30
2018-08-17T19:11:15.964Z,2.63
2018-08-17T19:13:44.849Z,2.27
2018-08-17T19:16:13.773Z,3.03
2018-08-17T19:18:42.620Z,2.87
2018-08-17T19:21:12.762Z,2.80
2018-08-17T19:23:41.988Z,3.30
2018-08-17T19:26:11.832Z,2.87
2018-08-17T19:28:40.749Z,3.30
2018-08-17T19:31:09.672Z,2.73
2018-08-17T19:33:38.640Z,3.10
2018-08-17T19:36:07.543Z,3.00
2018-08-17T19:38:37.253Z,3.03
2018-08-17T19:41:06.155Z,2.93
2018-08-17T19:43:35.094Z,2.80
2018-08-17T19:46:04.016Z,2.60
2018-08-17T19:48:32.926Z,2.87
2018-08-17T19:51:01.928Z,3.20
2018-08-17T19:53:30.874Z,3.40
2018-08-17T19:55:59.774Z,3.20
2018-08-17T19:58:28.709Z,3.03
2018-08-17T20:00:57.619Z,3.57
2018-08-17T20:03:26.581Z,2.90
2018-08-17T20:05:55.482Z,3.10
2018-08-17T20:08:24.365Z,4.13
2018-08-17T20:10:53.256Z,7.87
2018-08-17T20:13:24.361Z,5.60
2018-08-17T20:15:53.282Z,4.27
2018-08-17T20:18:22.165Z,3.87
2018-08-17T20:20:51.096Z,3.77
2018-08-17T20:23:21.037Z,3.40
2018-08-17T20:25:50.049Z,3.50
2018-08-17T20:28:18.852Z,3.67
2018-08-17T20:30:47.788Z,3.63
2018-08-17T20:33:26.870Z,3.90
2018-08-17T20:35:56.182Z,3.30
2018-08-17T20:38:25.220Z,3.97
2018-08-17T20:40:58.117Z,3.70
2018-08-17T20:43:28.000Z,3.53
2018-08-17T20:45:57.294Z,4.10
2018-08-17T20:48:26.231Z,3.53
2018-08-17T20:50:55.125Z,3.67
2018-08-17T20:53:24.090Z,3.63
2018-08-17T20:55:52.987Z,3.90
2018-08-17T20:58:21.881Z,3.73
2018-08-17T21:00:50.764Z,4.03
2018-08-17T21:03:19.648Z,3.87
2018-08-17T21:05:48.536Z,3.70
2018-08-17T21:08:17.405Z,4.20
2018-08-17T21:10:46.349Z,3.73
2018-08-17T21:13:15.225Z,7.10
2018-08-17T21:15:45.163Z,7.17
2018-08-17T21:18:14.090Z,7.27
2018-08-17T21:20:42.970Z,9.57
2018-08-17T21:23:11.878Z,6.63
2018-08-17T21:25:40.770Z,7.80
2018-08-17T21:28:09.667Z,5.87
2018-08-17T21:30:38.551Z,4.40
2018-08-17T21:33:07.548Z,4.40
2018-08-17T21:35:36.461Z,4.37
2018-08-17T21:38:05.384Z,3.10
2018-08-17T21:40:34.292Z,4.20
2018-08-17T21:43:03.187Z,3.50
2018-08-17T21:45:32.145Z,3.67
2018-08-17T21:48:01.070Z,3.47
2018-08-17T21:50:29.998Z,3.27
2018-08-17T21:52:58.869Z,3.37
2018-08-17T21:55:27.765Z,3.70
2018-08-17T21:57:56.690Z,3.97
2018-08-17T22:00:31.738Z,4.70
2018-08-17T22:03:00.634Z,3.90
2018-08-17T22:05:30.887Z,3.93
2018-08-17T22:08:00.432Z,3.60
2018-08-17T22:10:30.876Z,3.83
2018-08-17T22:12:59.781Z,3.93
2018-08-17T22:15:29.965Z,3.37
2018-08-17T22:17:58.858Z,3.70
2018-08-17T22:20:27.793Z,4.00
2018-08-17T22:22:58.225Z,3.70
2018-08-17T22:25:27.123Z,3.80
2018-08-17T22:27:56.040Z,3.90
2018-08-17T22:30:26.067Z,3.97
2018-08-17T22:32:55.024Z,3.47
2018-08-17T22:35:24.000Z,3.50
2018-08-17T22:37:52.864Z,3.70
2018-08-17T22:40:21.741Z,3.30
2018-08-17T22:42:51.087Z,4.50
2018-08-17T22:45:20.009Z,4.57
2018-08-17T22:47:48.927Z,4.80
2018-08-17T22:50:17.868Z,4.93
2018-08-17T22:52:46.763Z,5.00
2018-08-17T22:55:15.757Z,4.53
2018-08-17T22:57:44.644Z,4.83
2018-08-17T23:00:24.424Z,4.30
2018-08-17T23:02:55.402Z,4.93
2018-08-17T23:05:25.844Z,4.77
2018-08-17T23:07:54.868Z,4.57
2018-08-17T23:10:24.950Z,4.80
2018-08-17T23:12:54.473Z,4.40
2018-08-17T23:15:23.446Z,4.20
2018-08-17T23:17:53.478Z,4.73
2018-08-17T23:20:28.015Z,4.70
2018-08-17T23:22:58.076Z,4.20
2018-08-17T23:25:27.111Z,4.10
2018-08-17T23:27:56.311Z,4.00
2018-08-17T23:30:25.257Z,4.43
2018-08-17T23:32:54.192Z,4.40
2018-08-17T23:35:23.091Z,4.53
2018-08-17T23:37:52.009Z,4.20
2018-08-17T23:40:21.017Z,5.00
2018-08-17T23:42:49.905Z,4.60
2018-08-17T23:45:19.166Z,4.33
2018-08-17T23:47:48.062Z,4.70
2018-08-17T23:50:17.345Z,5.23
2018-08-17T23:52:46.333Z,5.13
2018-08-17T23:55:16.707Z,5.17
2018-08-17T23:57:45.624Z,4.70
